Time;durP1;ratioP1;P1;durP2;ratioP2;P2;SDS_P1;SDS_P2;PMS_P1;PMS_P2;Temp;Humidity;BMP_temperature;BMP_pressure;BME280_temperature;BME280_humidity;BME280_pressure;Samples;Min_cycle;Max_cycle;Signal;HPM_P1;HPM_P2
2023/06/24 00:01:32;;;;;;;2.05;1.85;;;;;;;18.26;77.77;99385.06;4141034;28;20341;-52
2023/06/24 00:03:37;;;;;;;2.55;2.35;;;;;;;18.25;78.43;99381.44;4141029;28;20236;-51
2023/06/24 00:05:39;;;;;;;2.90;2.53;;;;;;;18.13;78.55;99389.19;4141021;28;20312;-51
2023/06/24 00:07:45;;;;;;;2.38;2.10;;;;;;;18.08;78.73;99385.59;4139447;28;20204;-51
2023/06/24 00:09:47;;;;;;;2.55;2.35;;;;;;;18.01;78.85;99387.81;4134298;28;20197;-53
2023/06/24 00:11:49;;;;;;;2.22;2.03;;;;;;;17.95;78.82;99386.16;4166221;28;20694;-51
2023/06/24 00:13:50;;;;;;;2.35;2.15;;;;;;;17.92;78.70;99389.50;4146672;28;21834;-51
2023/06/24 00:15:52;;;;;;;2.70;2.50;;;;;;;18.00;78.83;99394.47;4148621;28;20722;-51
2023/06/24 00:18:05;;;;;;;2.72;2.33;;;;;;;18.09;78.51;99382.56;4139289;28;20249;-52
2023/06/24 00:20:13;;;;;;;3.47;2.80;;;;;;;18.02;78.88;99400.56;4138817;28;20613;-51
2023/06/24 00:22:15;;;;;;;2.75;2.55;;;;;;;17.96;78.96;99387.81;4143747;28;20228;-51
2023/06/24 00:24:19;;;;;;;2.67;2.45;;;;;;;17.90;78.67;99394.47;4146480;28;20204;-53
2023/06/24 00:26:20;;;;;;;2.75;2.55;;;;;;;17.87;78.88;99397.78;4163742;28;21807;-52
2023/06/24 00:28:23;;;;;;;6.65;2.40;;;;;;;17.88;78.97;99399.44;4132639;28;20206;-53
2023/06/24 00:30:26;;;;;;;2.35;2.15;;;;;;;17.90;79.09;99394.47;4166773;28;20878;-53
2023/06/24 00:32:27;;;;;;;2.95;2.63;;;;;;;17.87;79.30;99397.78;4143541;28;20237;-51
2023/06/24 00:34:29;;;;;;;2.78;2.25;;;;;;;17.82;79.58;99392.25;4136132;28;20265;-51
2023/06/24 00:36:32;;;;;;;2.78;2.58;;;;;;;17.80;80.08;99386.16;4132392;28;20305;-52
2023/06/24 00:38:34;;;;;;;2.85;2.65;;;;;;;17.75;80.53;99391.69;4118310;28;20211;-52
2023/06/24 00:40:37;;;;;;;2.75;2.13;;;;;;;17.73;80.60;99389.19;4165717;28;20590;-51
2023/06/24 00:42:39;;;;;;;2.38;2.17;;;;;;;17.74;81.22;99390.03;4150587;28;20198;-51
2023/06/24 00:44:41;;;;;;;2.92;2.72;;;;;;;17.71;81.49;99385.06;4134662;28;20206;-51
2023/06/24 00:46:43;;;;;;;2.42;2.22;;;;;;;17.71;81.86;99390.59;4133529;28;20249;-51
2023/06/24 00:48:45;;;;;;;2.25;2.05;;;;;;;17.69;81.80;99387.25;4149515;28;20746;-52
2023/06/24 00:50:49;;;;;;;3.38;2.58;;;;;;;17.63;81.54;99388.34;4151183;28;20212;-51
2023/06/24 00:52:51;;;;;;;2.85;2.60;;;;;;;17.62;81.12;99381.13;4132629;28;20217;-53
2023/06/24 00:54:53;;;;;;;3.25;2.95;;;;;;;17.60;81.00;99395.25;4133607;28;20712;-52
2023/06/24 00:56:54;;;;;;;2.75;2.55;;;;;;;17.54;81.27;99390.00;4136426;28;20198;-51
2023/06/24 00:58:59;;;;;;;2.75;2.50;;;;;;;17.53;80.91;99391.09;4163109;28;20856;-54
2023/06/24 01:01:01;;;;;;;5.18;3.40;;;;;;;17.43;81.08;99391.06;4136254;28;20304;-52
2023/06/24 01:03:03;;;;;;;2.42;2.22;;;;;;;17.34;81.62;99389.91;4137966;28;20664;-51
2023/06/24 01:05:06;;;;;;;2.40;2.20;;;;;;;17.30;81.60;99389.63;4134609;28;20226;-51
2023/06/24 01:07:08;;;;;;;2.80;2.60;;;;;;;17.33;81.89;99397.38;4150776;28;20259;-53
2023/06/24 01:09:10;;;;;;;3.28;2.97;;;;;;;17.28;82.13;99393.75;4134001;28;20714;-51
2023/06/24 01:11:12;;;;;;;2.95;2.70;;;;;;;17.27;82.45;99394.88;4139495;28;20220;-51
2023/06/24 01:13:14;;;;;;;2.60;2.40;;;;;;;17.20;82.62;99397.06;4134916;28;20209;-51
2023/06/24 01:15:19;;;;;;;3.42;3.13;;;;;;;17.17;82.95;99405.88;4162792;28;20237;-51
2023/06/24 01:17:28;;;;;;;2.88;2.60;;;;;;;17.19;82.92;99392.63;4165453;28;20208;-51
2023/06/24 01:19:59;;;;;;;2.50;2.30;;;;;;;17.21;82.86;99394.03;4133608;28;20322;-51
2023/06/24 01:22:11;;;;;;;2.22;2.00;;;;;;;17.24;83.17;99396.25;4138702;28;20202;-52
2023/06/24 01:24:42;;;;;;;3.40;3.10;;;;;;;17.21;83.08;99401.47;4140252;28;20205;-53
2023/06/24 01:26:46;;;;;;;3.08;2.78;;;;;;;17.22;83.29;99403.97;4166603;28;20258;-51
2023/06/24 01:29:15;;;;;;;2.90;2.70;;;;;;;17.16;83.73;99406.97;4149099;28;20221;-51
2023/06/24 01:31:35;;;;;;;3.17;2.97;;;;;;;17.08;83.95;99413.88;4148592;28;20587;-54
2023/06/24 01:33:43;;;;;;;3.35;3.05;;;;;;;17.02;84.51;99408.59;4163901;28;20678;-52
2023/06/24 01:35:45;;;;;;;3.22;2.92;;;;;;;17.07;84.42;99405.84;4137747;28;20320;-51
2023/06/24 01:37:52;;;;;;;3.25;2.85;;;;;;;16.99;84.32;99404.44;4135302;28;20834;-51
2023/06/24 01:40:10;;;;;;;2.63;2.42;;;;;;;16.95;84.48;99408.00;4138874;28;20208;-51
2023/06/24 01:42:14;;;;;;;4.30;3.00;;;;;;;16.93;84.31;99404.69;4137247;28;20209;-52
2023/06/24 01:44:16;;;;;;;6.88;3.08;;;;;;;16.90;84.46;99413.50;4136336;28;20217;-53
2023/06/24 01:46:21;;;;;;;2.72;2.50;;;;;;;16.90;84.02;99413.50;4150693;28;20229;-52
2023/06/24 01:48:26;;;;;;;3.30;3.00;;;;;;;16.83;84.57;99410.16;4142450;28;20560;-51
2023/06/24 01:50:31;;;;;;;3.30;3.00;;;;;;;16.86;84.46;99414.31;4143286;28;20213;-51
2023/06/24 01:52:35;;;;;;;2.85;2.65;;;;;;;16.88;84.31;99418.47;4134136;28;20283;-52
2023/06/24 01:54:39;;;;;;;3.45;2.80;;;;;;;16.84;84.57;99411.81;4133003;28;20305;-51
2023/06/24 01:56:42;;;;;;;4.43;2.70;;;;;;;16.81;84.75;99415.13;4135992;28;20201;-52
2023/06/24 01:58:46;;;;;;;3.40;3.10;;;;;;;16.83;85.09;99407.38;4138157;28;20202;-51
2023/06/24 02:00:48;;;;;;;2.88;2.67;;;;;;;16.78;85.60;99417.59;4148301;28;20260;-53
2023/06/24 02:02:51;;;;;;;3.40;3.13;;;;;;;16.72;85.86;99405.69;4135692;28;20206;-52
2023/06/24 02:04:54;;;;;;;2.75;2.55;;;;;;;16.68;85.88;99410.06;4147202;28;20332;-51
2023/06/24 02:06:58;;;;;;;3.03;2.72;;;;;;;16.68;85.72;99412.84;4148562;28;20267;-51
2023/06/24 02:09:01;;;;;;;3.15;2.70;;;;;;;16.67;85.89;99411.19;4151152;28;20210;-51
2023/06/24 02:11:04;;;;;;;2.90;2.60;;;;;;;16.63;86.25;99406.47;4145842;28;20228;-52
2023/06/24 02:13:08;;;;;;;3.00;2.80;;;;;;;16.62;86.27;99413.09;4146184;28;20233;-51
2023/06/24 02:15:10;;;;;;;2.85;2.65;;;;;;;16.64;86.41;99414.47;4164046;28;20232;-51
2023/06/24 02:17:13;;;;;;;3.10;2.90;;;;;;;16.60;86.55;99409.75;4166203;28;20230;-52
2023/06/24 02:19:17;;;;;;;2.55;2.35;;;;;;;16.51;86.72;99405.81;4131611;28;20222;-51
2023/06/24 02:21:20;;;;;;;3.08;2.85;;;;;;;16.47;86.79;99405.53;4161965;28;20220;-54
2023/06/24 02:23:22;;;;;;;3.08;2.80;;;;;;;16.46;86.72;99405.78;4129156;28;20722;-51
2023/06/24 02:25:25;;;;;;;2.80;2.60;;;;;;;16.44;86.79;99408.00;4163108;28;20223;-52
2023/06/24 02:27:46;;;;;;;3.20;2.90;;;;;;;16.37;86.94;99401.81;4136064;28;20210;-51
2023/06/24 02:29:48;;;;;;;3.25;2.95;;;;;;;16.44;87.14;99400.50;4115164;28;20604;-51
2023/06/24 02:31:49;;;;;;;2.90;2.70;;;;;;;16.43;86.91;99401.63;4149633;28;20950;-51
2023/06/24 02:33:51;;;;;;;3.55;3.25;;;;;;;16.36;87.37;99402.94;4154604;28;20221;-51
2023/06/24 02:35:53;;;;;;;4.38;2.90;;;;;;;16.33;87.24;99403.44;4141167;28;20247;-51
2023/06/24 02:37:55;;;;;;;2.60;2.33;;;;;;;16.29;87.54;99399.56;4141716;28;20209;-51
2023/06/24 02:39:57;;;;;;;3.50;3.20;;;;;;;16.28;87.72;99395.97;4146970;28;20219;-51
2023/06/24 02:41:59;;;;;;;3.47;3.17;;;;;;;16.28;87.92;99395.97;4133009;28;20284;-51
2023/06/24 02:44:00;;;;;;;3.42;3.13;;;;;;;16.22;88.01;99402.53;4140023;28;20209;-52
2023/06/24 02:46:04;;;;;;;3.47;3.17;;;;;;;16.18;88.37;99404.19;4150734;28;20232;-51
2023/06/24 02:48:07;;;;;;;2.50;2.30;;;;;;;16.16;88.52;99403.59;4117864;28;20252;-51
2023/06/24 02:50:09;;;;;;;3.92;3.13;;;;;;;16.16;88.48;99409.13;4146713;28;20223;-51
2023/06/24 02:52:11;;;;;;;2.45;2.25;;;;;;;16.17;88.48;99405.25;4146495;28;20233;-53
2023/06/24 02:54:13;;;;;;;2.97;2.78;;;;;;;16.15;88.69;99412.97;4143844;28;20213;-51
2023/06/24 02:56:20;;;;;;;3.42;3.13;;;;;;;16.15;88.66;99407.47;4148976;28;20295;-51
2023/06/24 02:58:23;;;;;;;3.33;2.70;;;;;;;16.12;88.65;99408.00;4144833;28;20697;-51
2023/06/24 03:00:29;;;;;;;3.15;2.85;;;;;;;16.04;88.97;99416.75;4131310;28;20206;-53
2023/06/24 03:02:32;;;;;;;3.58;3.28;;;;;;;16.01;89.08;99409.00;4149687;28;20205;-53
2023/06/24 03:04:34;;;;;;;2.90;2.58;;;;;;;16.00;88.99;99418.38;4163993;28;20208;-53
2023/06/24 03:06:37;;;;;;;3.25;2.95;;;;;;;15.98;88.74;99417.81;4147741;28;20213;-52
2023/06/24 03:08:39;;;;;;;3.42;3.13;;;;;;;16.04;88.53;99413.97;4130829;28;20210;-51
2023/06/24 03:10:41;;;;;;;3.60;2.35;;;;;;;15.99;89.04;99411.19;4122835;28;20206;-53
2023/06/24 03:12:42;;;;;;;3.25;2.95;;;;;;;15.93;89.04;99409.50;4146963;28;20225;-51
2023/06/24 03:14:44;;;;;;;3.25;2.95;;;;;;;15.94;89.05;99413.91;4161931;28;20764;-53
2023/06/24 03:16:46;;;;;;;2.65;2.45;;;;;;;15.95;89.30;99407.28;4144440;28;20217;-54
2023/06/24 03:18:48;;;;;;;3.88;3.63;;;;;;;15.95;89.01;99412.81;4132862;28;20252;-51
2023/06/24 03:20:50;;;;;;;5.07;2.95;;;;;;;15.94;89.06;99413.91;4134918;28;20349;-52
2023/06/24 03:22:52;;;;;;;3.03;2.83;;;;;;;15.86;89.08;99413.56;4134766;28;20197;-51
2023/06/24 03:24:54;;;;;;;3.38;3.08;;;;;;;15.80;88.97;99415.44;4136968;28;20218;-51
2023/06/24 03:26:56;;;;;;;2.97;2.78;;;;;;;15.82;89.57;99424.28;4131832;28;20218;-53
2023/06/24 03:28:59;;;;;;;2.88;2.67;;;;;;;15.83;90.17;99414.09;4166194;28;20212;-50
2023/06/24 03:31:01;;;;;;;3.20;3.00;;;;;;;15.69;90.80;99410.91;4166429;28;20260;-53
2023/06/24 03:33:03;;;;;;;3.47;3.28;;;;;;;15.69;90.79;99410.91;4162050;28;20278;-51
2023/06/24 03:35:06;;;;;;;3.17;2.90;;;;;;;15.70;90.49;99409.81;4135919;28;20291;-51
2023/06/24 03:37:08;;;;;;;3.42;3.20;;;;;;;15.67;90.10;99415.88;4149783;28;20252;-51
2023/06/24 03:39:09;;;;;;;3.15;2.92;;;;;;;15.71;90.35;99421.69;4132710;28;20936;-53
2023/06/24 03:41:11;;;;;;;3.42;3.13;;;;;;;15.71;90.32;99421.69;4165374;28;20214;-51
2023/06/24 03:43:13;;;;;;;3.58;3.28;;;;;;;15.68;90.38;99417.53;4165997;28;20622;-50
2023/06/24 03:45:14;;;;;;;3.55;3.30;;;;;;;15.71;90.66;99422.50;4138310;28;20702;-50
2023/06/24 03:47:19;;;;;;;4.07;3.78;;;;;;;15.65;90.70;99418.06;4147412;28;20299;-53
2023/06/24 03:49:21;;;;;;;3.60;3.30;;;;;;;15.65;90.78;99423.56;4135705;28;20220;-53
2023/06/24 03:51:22;;;;;;;3.10;2.90;;;;;;;15.62;90.61;99413.03;4136192;28;20208;-52
2023/06/24 03:53:24;;;;;;;3.15;2.90;;;;;;;15.64;90.68;99416.38;4135579;28;20311;-51
2023/06/24 03:55:26;;;;;;;3.58;3.30;;;;;;;15.64;90.78;99416.38;4168381;28;20593;-51
2023/06/24 03:57:28;;;;;;;3.22;2.92;;;;;;;15.56;91.16;99416.84;4136104;28;20386;-51
2023/06/24 03:59:30;;;;;;;3.38;2.80;;;;;;;15.52;91.42;99418.47;4133796;28;20210;-51
2023/06/24 04:01:31;;;;;;;3.80;3.50;;;;;;;15.50;91.39;99425.34;4135175;28;20202;-51
2023/06/24 04:03:33;;;;;;;3.35;3.05;;;;;;;15.52;91.15;99428.66;4148176;28;20540;-50
2023/06/24 04:05:35;;;;;;;3.10;2.80;;;;;;;15.52;91.37;99424.00;4140591;28;20233;-50
2023/06/24 04:07:38;;;;;;;3.88;2.95;;;;;;;15.55;91.69;99434.50;4135679;28;20264;-51
2023/06/24 04:09:40;;;;;;;4.10;3.33;;;;;;;15.53;91.48;99436.69;4134883;28;20287;-52
2023/06/24 04:11:41;;;;;;;4.15;3.75;;;;;;;15.53;91.45;99436.69;4123865;28;20202;-54
2023/06/24 04:13:45;;;;;;;3.53;3.13;;;;;;;15.56;91.59;99436.16;4150600;28;20229;-51
2023/06/24 04:15:46;;;;;;;3.13;2.92;;;;;;;15.51;91.40;99449.88;4139204;28;20260;-52
2023/06/24 04:17:48;;;;;;;3.50;3.20;;;;;;;15.48;91.42;99439.38;4163906;28;20217;-50
2023/06/24 04:19:50;;;;;;;3.70;3.40;;;;;;;15.54;91.59;99443.03;4136254;28;20240;-51
2023/06/24 04:21:51;;;;;;;3.80;3.50;;;;;;;15.53;91.93;99442.22;4140387;28;20213;-52
2023/06/24 04:23:53;;;;;;;3.70;3.40;;;;;;;15.50;91.57;99448.22;4152641;28;20240;-54
2023/06/24 04:25:55;;;;;;;2.83;2.63;;;;;;;15.50;91.64;99442.72;4166157;28;20577;-51
2023/06/24 04:27:57;;;;;;;4.20;3.28;;;;;;;15.56;92.06;99443.63;4138784;28;20634;-50
2023/06/24 04:30:00;;;;;;;3.45;3.15;;;;;;;15.55;92.25;99442.78;4133375;28;20256;-51
2023/06/24 04:32:01;;;;;;;3.30;3.00;;;;;;;15.60;92.33;99445.59;4151641;28;20255;-51
2023/06/24 04:34:03;;;;;;;3.80;3.50;;;;;;;15.54;92.62;99443.88;4138545;28;20268;-51
2023/06/24 04:36:05;;;;;;;4.50;3.53;;;;;;;15.54;92.59;99448.53;4146922;28;20332;-52
2023/06/24 04:38:06;;;;;;;3.72;3.47;;;;;;;15.50;93.39;99459.25;4150055;28;20211;-51
2023/06/24 04:40:09;;;;;;;3.80;3.33;;;;;;;15.48;93.41;99455.94;4147655;28;20205;-54
2023/06/24 04:42:11;;;;;;;3.45;3.25;;;;;;;15.50;93.07;99459.25;4140436;28;20213;-50
2023/06/24 04:44:12;;;;;;;5.25;3.45;;;;;;;15.60;92.94;99453.88;4134742;28;20295;-51
2023/06/24 04:46:14;;;;;;;4.38;3.22;;;;;;;15.66;92.93;99455.59;4135064;28;20855;-50
2023/06/24 04:48:16;;;;;;;3.78;3.47;;;;;;;15.58;93.40;99446.94;4135702;28;20206;-50
2023/06/24 04:50:18;;;;;;;4.30;3.90;;;;;;;15.59;93.73;99451.38;4164759;28;20212;-51
2023/06/24 04:52:19;;;;;;;3.85;3.53;;;;;;;15.65;93.27;99455.84;4135424;28;20202;-50
2023/06/24 04:54:21;;;;;;;3.40;3.10;;;;;;;15.68;93.32;99455.31;4135269;28;20214;-51
2023/06/24 04:56:23;;;;;;;4.32;3.08;;;;;;;15.68;93.57;99453.41;4161735;28;20779;-51
2023/06/24 04:58:24;;;;;;;3.70;3.40;;;;;;;15.70;93.06;99459.47;4148079;28;20691;-50
2023/06/24 05:00:26;;;;;;;3.70;3.40;;;;;;;15.78;92.67;99467.31;4145612;28;20245;-52
2023/06/24 05:02:28;;;;;;;3.55;3.35;;;;;;;15.83;92.34;99459.06;4135680;28;20725;-53
2023/06/24 05:04:29;;;;;;;3.75;3.45;;;;;;;15.87;92.07;99449.19;4168518;28;20211;-51
2023/06/24 05:06:31;;;;;;;3.92;3.63;;;;;;;15.91;91.92;99452.25;4148061;28;20236;-53
2023/06/24 05:08:33;;;;;;;3.60;3.30;;;;;;;15.99;91.44;99449.84;4138685;28;20694;-51
2023/06/24 05:10:35;;;;;;;4.05;3.75;;;;;;;16.12;91.49;99457.72;4150010;28;20315;-50
2023/06/24 05:12:36;;;;;;;3.63;3.33;;;;;;;15.87;93.28;99448.34;4134571;28;20202;-51
2023/06/24 05:14:38;;;;;;;3.20;3.00;;;;;;;15.97;92.80;99454.78;4162832;28;20201;-53
2023/06/24 05:16:40;;;;;;;4.72;4.32;;;;;;;16.03;92.74;99458.44;4163536;28;20298;-52
2023/06/24 05:18:41;;;;;;;3.90;3.60;;;;;;;16.14;91.92;99460.19;4132813;28;20213;-52
2023/06/24 05:20:43;;;;;;;3.40;3.15;;;;;;;16.25;91.14;99462.78;4135605;28;20210;-52
2023/06/24 05:22:45;;;;;;;5.00;4.13;;;;;;;16.37;90.66;99460.66;4135225;28;20213;-51
2023/06/24 05:24:46;;;;;;;3.65;3.35;;;;;;;16.46;90.53;99470.19;4149384;28;20271;-52
2023/06/24 05:26:49;;;;;;;4.07;3.72;;;;;;;16.58;90.22;99469.97;4164428;28;20217;-50
2023/06/24 05:28:51;;;;;;;3.65;3.35;;;;;;;16.69;89.49;99469.78;4136242;28;20209;-50
2023/06/24 05:30:52;;;;;;;3.50;3.20;;;;;;;16.84;89.12;99467.09;4138786;28;20251;-51
2023/06/24 05:32:54;;;;;;;3.85;3.53;;;;;;;16.86;90.37;99470.47;4166253;28;20221;-51
2023/06/24 05:34:56;;;;;;;3.45;3.15;;;;;;;17.02;89.68;99473.06;4137723;28;20341;-53
2023/06/24 05:36:58;;;;;;;3.85;3.55;;;;;;;17.15;89.18;99474.47;4131120;28;20263;-50
2023/06/24 05:39:00;;;;;;;3.45;3.15;;;;;;;17.31;88.71;99473.47;4135076;28;20217;-52
2023/06/24 05:41:02;;;;;;;3.15;2.95;;;;;;;17.40;88.48;99469.09;4151883;28;20686;-50
2023/06/24 05:43:04;;;;;;;3.70;3.35;;;;;;;17.62;89.22;99481.66;4130696;28;20206;-52
2023/06/24 05:45:06;;;;;;;6.20;3.80;;;;;;;17.62;90.17;99487.19;4145864;28;20303;-53
2023/06/24 05:47:08;;;;;;;3.28;3.08;;;;;;;17.77;89.96;99483.59;4149001;28;20205;-53
2023/06/24 05:49:10;;;;;;;4.10;3.80;;;;;;;17.94;88.67;99492.53;4134091;28;20242;-51
2023/06/24 05:51:11;;;;;;;3.33;3.10;;;;;;;18.24;87.21;99481.50;4138891;28;20210;-52
2023/06/24 05:53:13;;;;;;;3.35;3.05;;;;;;;18.46;86.28;99490.41;4135054;28;20217;-52
2023/06/24 05:55:15;;;;;;;4.45;4.13;;;;;;;18.42;84.46;99481.81;4133955;28;20229;-51
2023/06/24 05:57:16;;;;;;;4.10;3.80;;;;;;;18.48;85.61;99486.25;4134442;28;20206;-52
2023/06/24 05:59:18;;;;;;;3.22;3.03;;;;;;;18.73;83.35;99482.63;4134897;28;20437;-51
2023/06/24 06:01:20;;;;;;;3.83;3.53;;;;;;;18.83;82.82;99489.00;4133925;28;20583;-52
2023/06/24 06:03:22;;;;;;;3.90;3.53;;;;;;;18.94;82.53;99479.56;4132791;28;20231;-50
2023/06/24 06:05:23;;;;;;;4.05;3.65;;;;;;;19.20;82.00;99483.97;4147439;28;20232;-51
2023/06/24 06:07:25;;;;;;;4.45;4.15;;;;;;;19.29;81.47;99489.72;4147275;28;20241;-50
2023/06/24 06:09:27;;;;;;;4.40;4.00;;;;;;;19.26;81.06;99487.53;4131734;28;20676;-50
2023/06/24 06:11:29;;;;;;;4.35;4.05;;;;;;;19.47;80.27;99484.41;4132288;28;21082;-50
2023/06/24 06:13:30;;;;;;;4.57;3.80;;;;;;;19.62;79.06;99486.28;4145527;28;20233;-52
2023/06/24 06:15:32;;;;;;;3.15;2.95;;;;;;;19.28;79.44;99488.06;4135171;28;20236;-52
2023/06/24 06:17:34;;;;;;;3.90;2.97;;;;;;;19.13;80.65;99479.78;4165731;28;20205;-51
2023/06/24 06:19:36;;;;;;;3.50;3.20;;;;;;;19.01;80.88;99485.63;4138008;28;20332;-51
2023/06/24 06:21:38;;;;;;;4.22;3.90;;;;;;;19.16;80.30;99488.38;4137232;28;20201;-52
2023/06/24 06:23:39;;;;;;;4.50;4.10;;;;;;;19.28;80.17;99493.63;4139172;28;20210;-50
2023/06/24 06:25:41;;;;;;;4.07;3.55;;;;;;;19.65;79.56;99483.75;4134121;28;20267;-53
2023/06/24 06:27:43;;;;;;;3.33;3.13;;;;;;;19.88;78.92;99485.03;4148713;28;20223;-51
2023/06/24 06:29:44;;;;;;;3.90;3.60;;;;;;;19.85;78.03;99480.88;4133975;28;20210;-50
2023/06/24 06:31:46;;;;;;;4.53;4.13;;;;;;;20.16;76.75;99478.75;4129973;28;20292;-53
2023/06/24 06:33:48;;;;;;;3.35;3.05;;;;;;;20.52;76.09;99480.16;4132773;28;20264;-54
2023/06/24 06:35:49;;;;;;;3.75;3.35;;;;;;;20.79;74.59;99486.03;4162689;28;20721;-52
2023/06/24 06:37:52;;;;;;;3.50;3.20;;;;;;;21.08;73.15;99484.09;4144017;28;20205;-51
2023/06/24 06:39:57;;;;;;;3.85;3.38;;;;;;;21.04;72.12;99483.84;4164658;28;20222;-50
2023/06/24 06:41:59;;;;;;;4.75;4.35;;;;;;;21.12;72.06;99482.41;4130875;28;20214;-51
2023/06/24 06:44:00;;;;;;;3.55;3.25;;;;;;;21.37;71.34;99482.94;4133159;28;20651;-51
2023/06/24 06:46:02;;;;;;;2.90;2.70;;;;;;;21.62;70.81;99487.34;4133071;28;20245;-52
2023/06/24 06:48:07;;;;;;;2.78;2.58;;;;;;;21.86;70.07;99490.97;4164345;28;20210;-52
2023/06/24 06:50:09;;;;;;;2.88;2.67;;;;;;;22.06;69.94;99487.91;4136585;28;20209;-52
2023/06/24 06:52:11;;;;;;;3.47;2.58;;;;;;;22.23;68.87;99491.03;4164605;28;20262;-52
2023/06/24 06:54:12;;;;;;;5.72;2.83;;;;;;;22.53;68.18;99484.97;4136015;28;20224;-50
2023/06/24 06:56:27;;;;;;;4.82;3.08;;;;;;;22.60;67.33;99479.84;4139621;28;20672;-51
2023/06/24 06:58:29;;;;;;;3.33;3.03;;;;;;;22.84;66.89;99477.75;4151008;28;20222;-52
2023/06/24 07:00:30;;;;;;;4.20;3.50;;;;;;;22.93;66.34;99473.94;4151842;28;20282;-52
2023/06/24 07:02:32;;;;;;;3.55;3.22;;;;;;;22.85;64.56;99471.84;4133441;28;20600;-53
2023/06/24 07:04:34;;;;;;;3.22;3.03;;;;;;;23.03;65.38;99468.16;4150972;28;20212;-50
2023/06/24 07:06:35;;;;;;;2.72;2.40;;;;;;;23.23;65.10;99467.81;4154186;28;20243;-50
2023/06/24 07:08:37;;;;;;;4.00;3.30;;;;;;;23.35;63.80;99472.88;4149362;28;20208;-53
2023/06/24 07:10:39;;;;;;;3.15;2.90;;;;;;;23.60;62.41;99472.38;4166608;28;20220;-51
2023/06/24 07:12:41;;;;;;;3.08;2.50;;;;;;;23.67;62.78;99477.22;4134165;28;20336;-50
2023/06/24 07:14:42;;;;;;;3.78;3.47;;;;;;;23.39;61.88;99473.94;4132066;28;20279;-50
2023/06/24 07:16:44;;;;;;;3.25;2.95;;;;;;;23.56;62.97;99474.16;4146291;28;20201;-53
2023/06/24 07:18:46;;;;;;;3.75;3.45;;;;;;;23.48;60.33;99469.25;4146524;28;20578;-53
2023/06/24 07:20:48;;;;;;;3.17;2.88;;;;;;;23.13;62.66;99459.59;4136162;28;20209;-53
2023/06/24 07:22:50;;;;;;;3.08;2.63;;;;;;;23.46;63.05;99464.00;4146926;28;20638;-51
2023/06/24 07:24:52;;;;;;;3.30;3.03;;;;;;;23.73;62.86;99465.94;4135117;28;20216;-52
2023/06/24 07:26:53;;;;;;;2.90;2.70;;;;;;;23.95;61.37;99464.06;4133292;28;20212;-51
2023/06/24 07:28:58;;;;;;;3.53;3.22;;;;;;;23.86;63.45;99460.34;4135903;28;20205;-51
2023/06/24 07:31:09;;;;;;;3.28;2.97;;;;;;;24.17;61.11;99467.75;4161556;28;20215;-50
2023/06/24 07:33:11;;;;;;;3.70;3.33;;;;;;;23.83;60.77;99460.13;4135172;28;20278;-50
2023/06/24 07:35:15;;;;;;;4.28;2.97;;;;;;;24.14;61.00;99468.34;4133007;28;20257;-51
2023/06/24 07:37:17;;;;;;;2.63;2.42;;;;;;;24.40;60.83;99463.81;4149049;28;20628;-51
2023/06/24 07:39:25;;;;;;;3.60;3.33;;;;;;;24.40;59.05;99466.59;4148621;28;20246;-52
2023/06/24 07:41:27;;;;;;;4.05;3.75;;;;;;;24.59;57.85;99460.88;4144945;28;20216;-52
2023/06/24 07:43:29;;;;;;;3.10;2.67;;;;;;;24.33;59.08;99463.44;4133558;28;20249;-52
2023/06/24 07:45:30;;;;;;;3.08;2.80;;;;;;;24.44;57.34;99462.03;4135993;28;20286;-53
2023/06/24 07:47:32;;;;;;;3.33;3.05;;;;;;;24.49;57.19;99453.53;4133993;28;20236;-50
2023/06/24 07:49:34;;;;;;;3.03;2.75;;;;;;;24.34;57.18;99465.06;4130393;28;20239;-51
2023/06/24 07:51:36;;;;;;;3.58;3.28;;;;;;;24.13;57.64;99460.31;4136585;28;20205;-53
2023/06/24 07:53:37;;;;;;;3.63;3.22;;;;;;;24.56;58.52;99453.94;4147207;28;21140;-50
2023/06/24 07:55:39;;;;;;;3.10;2.80;;;;;;;24.97;57.60;99454.53;4131453;28;20237;-50
2023/06/24 07:57:45;;;;;;;3.63;3.33;;;;;;;25.23;56.52;99452.72;4146879;28;20621;-54
2023/06/24 07:59:46;;;;;;;2.67;2.47;;;;;;;25.68;56.63;99459.00;4161293;28;20281;-51
2023/06/24 08:01:48;;;;;;;2.72;2.47;;;;;;;25.81;56.38;99458.88;4139637;28;20225;-50
2023/06/24 08:03:50;;;;;;;4.93;2.65;;;;;;;26.02;55.95;99459.09;4133237;28;20673;-54
2023/06/24 08:05:52;;;;;;;3.38;3.08;;;;;;;26.29;55.21;99465.25;4146639;28;20342;-51
2023/06/24 08:07:53;;;;;;;3.10;2.83;;;;;;;26.52;54.35;99461.09;4132095;28;20213;-52
2023/06/24 08:09:55;;;;;;;3.60;2.53;;;;;;;26.72;54.79;99457.63;4130411;28;20701;-51
2023/06/24 08:11:57;;;;;;;3.20;2.90;;;;;;;26.66;51.98;99469.41;4147342;28;20213;-53
2023/06/24 08:13:58;;;;;;;4.80;3.00;;;;;;;26.55;52.67;99457.69;4150238;28;20314;-51
2023/06/24 08:16:00;;;;;;;2.72;2.47;;;;;;;26.84;53.11;99460.59;4133176;28;20813;-54
2023/06/24 08:18:02;;;;;;;3.22;2.60;;;;;;;26.97;51.62;99458.75;4131112;28;20213;-50
2023/06/24 08:20:04;;;;;;;3.10;2.80;;;;;;;26.51;51.74;99453.84;4146986;28;20377;-53
2023/06/24 08:22:06;;;;;;;3.75;3.45;;;;;;;26.64;50.24;99450.06;4164690;28;20619;-50
2023/06/24 08:24:07;;;;;;;3.45;2.67;;;;;;;26.10;51.49;99447.88;4131879;28;20712;-50
2023/06/24 08:26:09;;;;;;;3.03;2.70;;;;;;;26.45;50.81;99446.72;4145660;28;20303;-50
2023/06/24 08:28:18;;;;;;;4.75;2.60;;;;;;;26.00;50.10;99448.19;4130538;28;20295;-50
2023/06/24 08:30:20;;;;;;;2.58;2.38;;;;;;;26.90;50.30;99444.38;4131059;28;20472;-50
2023/06/24 08:32:21;;;;;;;3.53;3.22;;;;;;;26.82;49.37;99448.88;4132478;28;20263;-50
2023/06/24 08:34:23;;;;;;;3.75;3.10;;;;;;;26.48;47.51;99448.91;4137191;28;20233;-50
2023/06/24 08:36:29;;;;;;;5.63;2.92;;;;;;;26.21;48.84;99443.63;4134250;28;20236;-53
2023/06/24 08:38:30;;;;;;;7.90;2.88;;;;;;;26.76;48.15;99435.31;4158547;28;20216;-50
2023/06/24 08:40:32;;;;;;;3.90;2.58;;;;;;;27.45;48.94;99434.00;4133413;28;20274;-51
2023/06/24 08:42:34;;;;;;;3.10;2.78;;;;;;;27.37;45.90;99434.81;4131448;28;20204;-50
2023/06/24 08:44:36;;;;;;;4.60;2.70;;;;;;;27.80;48.19;99427.84;4127665;28;20208;-53
2023/06/24 08:46:37;;;;;;;2.53;2.33;;;;;;;27.80;47.25;99422.22;4164592;28;20208;-52
2023/06/24 08:48:42;;;;;;;4.47;2.58;;;;;;;27.99;46.52;99431.03;4135430;28;20704;-52
2023/06/24 08:50:48;;;;;;;3.15;2.50;;;;;;;28.37;46.33;99428.94;4145695;28;20212;-50
2023/06/24 08:52:52;;;;;;;7.32;3.10;;;;;;;28.48;46.11;99426.53;4135251;28;20212;-50
2023/06/24 08:54:55;;;;;;;3.20;2.10;;;;;;;28.79;45.76;99427.69;4130309;28;20239;-50
2023/06/24 08:56:56;;;;;;;2.33;2.13;;;;;;;29.05;45.10;99425.47;4135559;28;20276;-53
2023/06/24 08:58:58;;;;;;;2.67;2.47;;;;;;;28.82;44.63;99421.38;4137960;28;20245;-50
2023/06/24 09:01:00;;;;;;;2.50;2.20;;;;;;;28.49;45.17;99420.56;4164680;28;20275;-52
2023/06/24 09:03:02;;;;;;;2.47;2.20;;;;;;;28.23;43.69;99425.56;4132827;28;20212;-52
2023/06/24 09:05:05;;;;;;;2.33;2.13;;;;;;;28.72;44.75;99421.81;4137619;28;20226;-52
2023/06/24 09:07:07;;;;;;;2.83;2.63;;;;;;;29.13;43.85;99427.34;4139700;28;20213;-53
2023/06/24 09:09:19;;;;;;;4.50;2.75;;;;;;;28.08;44.68;99423.38;4133823;28;20204;-50
2023/06/24 09:11:26;;;;;;;2.70;2.50;;;;;;;28.36;44.54;99421.66;4143247;28;20354;-50
2023/06/24 09:13:35;;;;;;;2.78;2.58;;;;;;;27.60;45.07;99422.97;4141953;28;20210;-51
2023/06/24 09:15:38;;;;;;;3.42;2.97;;;;;;;28.44;45.10;99408.69;4168759;28;20285;-50
2023/06/24 09:17:48;;;;;;;3.40;2.33;;;;;;;29.07;44.32;99411.84;4131808;28;20204;-50
2023/06/24 09:19:50;;;;;;;2.88;2.67;;;;;;;29.41;43.46;99405.78;4164810;28;20580;-53
2023/06/24 09:21:52;;;;;;;2.70;2.50;;;;;;;29.20;41.64;99410.72;4139227;28;20658;-50
2023/06/24 09:23:55;;;;;;;4.05;2.08;;;;;;;29.61;43.30;99404.88;4135795;28;20279;-52
2023/06/24 09:25:58;;;;;;;2.75;2.40;;;;;;;29.38;42.66;99397.22;4134393;28;20224;-50
2023/06/24 09:28:00;;;;;;;2.58;2.38;;;;;;;29.41;42.72;99394.50;4134041;28;20240;-49
2023/06/24 09:30:20;;;;;;;2.38;2.17;;;;;;;29.50;41.57;99392.38;4133740;28;20217;-51
2023/06/24 09:32:21;;;;;;;2.08;1.88;;;;;;;28.44;41.75;99400.25;4165119;28;20200;-50
2023/06/24 09:34:23;;;;;;;2.53;2.22;;;;;;;28.32;40.92;99398.13;4165362;28;20705;-53
2023/06/24 09:36:25;;;;;;;1.88;1.77;;;;;;;28.36;42.13;99401.13;4136767;28;20254;-51
2023/06/24 09:38:36;;;;;;;2.35;1.92;;;;;;;28.95;41.94;99392.09;4135767;28;20220;-52
2023/06/24 09:40:39;;;;;;;3.10;2.13;;;;;;;29.32;41.90;99382.47;4139893;28;20200;-51